BER109 EGKK-EDDF
Flight info
| Callsign | BER109 |
|---|---|
| Flight time | 0h 55m |
| Altitude | 33000 |
| Route | MIMFO Y312 DVR UL9 KONAN UL607 SPI T180 NIVNU/N0417F230 T847 IMCOM IMCOM2C |
| Aircraft | B738/M-SDE2E3FGHIRWXY/LB1 |
Departure
| Time | 2026-04-14 16:19 |
|---|---|
| Airport | London Gatwick Airport (EGKK) |
Arrival
| Time | 2026-04-14 17:15 |
|---|---|
| Airport | Frankfurt Main Airport (EDDF) |
| Time | Latitude | Longitude | Altitude | Speed | Heading |
|---|---|---|---|---|---|
| 2026-04-14 15:28 | 51.15995 | -0.17993 | 204 ft | 0 kts | 77° |
| 2026-04-14 15:29 | 51.15994 | -0.17999 | 204 ft | 0 kts | 77° |
| 2026-04-14 15:45 | 51.15992 | -0.18015 | 214 ft | 4 kts | 77° |
| 2026-04-14 15:45 | 51.15986 | -0.18057 | 213 ft | 4 kts | 77° |
| 2026-04-14 15:46 | 51.15983 | -0.18097 | 212 ft | 4 kts | 101° |
| 2026-04-14 15:46 | 51.15994 | -0.18130 | 215 ft | 4 kts | 149° |
| 2026-04-14 15:46 | 51.16015 | -0.18143 | 210 ft | 2 kts | 167° |
| 2026-04-14 15:46 | 51.16039 | -0.18152 | 208 ft | 4 kts | 167° |
| 2026-04-14 15:47 | 51.16066 | -0.18161 | 206 ft | 4 kts | 167° |
| 2026-04-14 15:47 | 51.16092 | -0.18170 | 216 ft | 4 kts | 167° |
| 2026-04-14 15:47 | 51.16103 | -0.18173 | 213 ft | 1 kts | 167° |
| 2026-04-14 15:50 | 51.16059 | -0.18158 | 210 ft | 14 kts | 167° |
| 2026-04-14 15:50 | 51.15951 | -0.18121 | 207 ft | 16 kts | 167° |
| 2026-04-14 15:50 | 51.15844 | -0.18084 | 204 ft | 15 kts | 168° |
| 2026-04-14 15:50 | 51.15757 | -0.18054 | 204 ft | 11 kts | 168° |
| 2026-04-14 15:51 | 51.15701 | -0.17998 | 207 ft | 10 kts | 103° |
| 2026-04-14 15:51 | 51.15708 | -0.17900 | 211 ft | 6 kts | 78° |
| 2026-04-14 15:51 | 51.15709 | -0.17896 | 210 ft | 0 kts | 78° |
| 2026-04-14 15:53 | 51.15710 | -0.17888 | 204 ft | 5 kts | 78° |
| 2026-04-14 15:53 | 51.15717 | -0.17836 | 204 ft | 3 kts | 77° |
| 2026-04-14 15:53 | 51.15722 | -0.17797 | 206 ft | 8 kts | 77° |
| 2026-04-14 15:53 | 51.15740 | -0.17671 | 211 ft | 12 kts | 78° |
| 2026-04-14 15:54 | 51.15695 | -0.17492 | 212 ft | 10 kts | 167° |
| 2026-04-14 15:54 | 51.15620 | -0.17467 | 207 ft | 13 kts | 168° |
| 2026-04-14 15:54 | 51.15531 | -0.17437 | 208 ft | 11 kts | 168° |
| 2026-04-14 15:55 | 51.15482 | -0.17420 | 210 ft | 7 kts | 168° |
| 2026-04-14 15:55 | 51.15464 | -0.17414 | 204 ft | 0 kts | 167° |
| 2026-04-14 15:56 | 51.15442 | -0.17406 | 204 ft | 4 kts | 167° |
| 2026-04-14 15:56 | 51.15436 | -0.17404 | 209 ft | 0 kts | 167° |
| 2026-04-14 15:57 | 51.15398 | -0.17390 | 204 ft | 9 kts | 167° |
| 2026-04-14 15:57 | 51.15340 | -0.17370 | 207 ft | 8 kts | 168° |
| 2026-04-14 15:57 | 51.15283 | -0.17350 | 208 ft | 8 kts | 166° |
| 2026-04-14 15:58 | 51.15245 | -0.17294 | 213 ft | 8 kts | 103° |
| 2026-04-14 15:58 | 51.15250 | -0.17208 | 204 ft | 8 kts | 79° |
| 2026-04-14 15:58 | 51.15261 | -0.17126 | 213 ft | 7 kts | 77° |
| 2026-04-14 15:58 | 51.15271 | -0.17053 | 207 ft | 0 kts | 77° |
| 2026-04-14 15:59 | 51.15275 | -0.17025 | 208 ft | 8 kts | 77° |
| 2026-04-14 16:00 | 51.15282 | -0.16977 | 204 ft | 0 kts | 77° |
| 2026-04-14 16:02 | 51.15283 | -0.16969 | 204 ft | 3 kts | 77° |
| 2026-04-14 16:02 | 51.15289 | -0.16926 | 214 ft | 4 kts | 77° |
| 2026-04-14 16:02 | 51.15294 | -0.16888 | 207 ft | 3 kts | 81° |
| 2026-04-14 16:02 | 51.15294 | -0.16876 | 204 ft | 0 kts | 92° |
| 2026-04-14 16:12 | 51.15288 | -0.16848 | 210 ft | 5 kts | 122° |
| 2026-04-14 16:12 | 51.15281 | -0.16839 | 207 ft | 0 kts | 141° |
| 2026-04-14 16:16 | 51.15247 | -0.16819 | 209 ft | 3 kts | 165° |
| 2026-04-14 16:16 | 51.15241 | -0.16817 | 211 ft | 0 kts | 165° |
| 2026-04-14 16:17 | 51.15240 | -0.16816 | 211 ft | 0 kts | 165° |
| 2026-04-14 16:17 | 51.15171 | -0.16796 | 209 ft | 13 kts | 179° |
| 2026-04-14 16:18 | 51.15112 | -0.16886 | 213 ft | 13 kts | 255° |
| 2026-04-14 16:18 | 51.15105 | -0.16935 | 208 ft | 0 kts | 257° |
| 2026-04-14 16:18 | 51.15098 | -0.16982 | 211 ft | 24 kts | 257° |
| 2026-04-14 16:18 | 51.15005 | -0.17661 | 209 ft | 100 kts | 257° |
| 2026-04-14 16:19 | 51.14792 | -0.19091 | 213 ft | 162 kts | 250° |
| 2026-04-14 16:19 | 51.14522 | -0.20935 | 896 ft | 165 kts | 254° |
| 2026-04-14 16:19 | 51.14303 | -0.22702 | 1974 ft | 163 kts | 253° |
| 2026-04-14 16:19 | 51.14060 | -0.24579 | 2504 ft | 188 kts | 255° |
| 2026-04-14 16:20 | 51.13783 | -0.26764 | 2807 ft | 212 kts | 257° |
| 2026-04-14 16:20 | 51.13878 | -0.29157 | 3409 ft | 224 kts | 284° |
| 2026-04-14 16:20 | 51.14692 | -0.31285 | 3927 ft | 231 kts | 312° |
| 2026-04-14 16:20 | 51.16117 | -0.32521 | 3982 ft | 245 kts | 347° |
| 2026-04-14 16:21 | 51.17256 | -0.32518 | 4329 ft | 252 kts | 11° |
| 2026-04-14 16:21 | 51.18831 | -0.31297 | 4915 ft | 256 kts | 44° |
| 2026-04-14 16:21 | 51.19736 | -0.28916 | 4985 ft | 253 kts | 81° |
| 2026-04-14 16:21 | 51.19947 | -0.26167 | 5006 ft | 249 kts | 87° |
| 2026-04-14 16:22 | 51.20136 | -0.23421 | 4992 ft | 247 kts | 86° |
| 2026-04-14 16:22 | 51.20351 | -0.20717 | 5004 ft | 245 kts | 85° |
| 2026-04-14 16:22 | 51.20649 | -0.17962 | 5088 ft | 265 kts | 81° |
| 2026-04-14 16:22 | 51.21028 | -0.14974 | 5655 ft | 280 kts | 80° |
| 2026-04-14 16:23 | 51.21431 | -0.11912 | 6010 ft | 283 kts | 80° |
| 2026-04-14 16:23 | 51.21841 | -0.08809 | 6484 ft | 288 kts | 79° |
| 2026-04-14 16:23 | 51.22255 | -0.05668 | 7368 ft | 289 kts | 80° |
| 2026-04-14 16:23 | 51.22668 | -0.02518 | 8240 ft | 291 kts | 80° |
| 2026-04-14 16:24 | 51.23060 | 0.00485 | 9053 ft | 293 kts | 80° |
| 2026-04-14 16:24 | 51.23418 | 0.03239 | 9801 ft | 296 kts | 81° |
| 2026-04-14 16:24 | 51.23835 | 0.06467 | 10521 ft | 303 kts | 80° |
| 2026-04-14 16:24 | 51.24277 | 0.09888 | 10786 ft | 326 kts | 80° |
| 2026-04-14 16:25 | 51.24749 | 0.13564 | 10969 ft | 350 kts | 80° |
| 2026-04-14 16:25 | 51.25253 | 0.17490 | 11170 ft | 372 kts | 80° |
| 2026-04-14 16:25 | 51.25486 | 0.21659 | 11546 ft | 382 kts | 96° |
| 2026-04-14 16:25 | 51.25156 | 0.25867 | 12106 ft | 384 kts | 99° |
| 2026-04-14 16:26 | 51.24791 | 0.30102 | 12728 ft | 390 kts | 99° |
| 2026-04-14 16:26 | 51.24432 | 0.34437 | 13391 ft | 395 kts | 98° |
| 2026-04-14 16:26 | 51.24089 | 0.38804 | 14050 ft | 399 kts | 98° |
| 2026-04-14 16:26 | 51.23754 | 0.43204 | 14671 ft | 402 kts | 98° |
| 2026-04-14 16:27 | 51.23416 | 0.47653 | 15292 ft | 406 kts | 98° |
| 2026-04-14 16:27 | 51.23073 | 0.52145 | 15900 ft | 409 kts | 98° |
| 2026-04-14 16:27 | 51.22721 | 0.56678 | 16500 ft | 413 kts | 98° |
| 2026-04-14 16:27 | 51.22365 | 0.61246 | 17119 ft | 417 kts | 98° |
| 2026-04-14 16:28 | 51.22004 | 0.65853 | 17721 ft | 421 kts | 98° |
| 2026-04-14 16:28 | 51.21637 | 0.70511 | 18315 ft | 425 kts | 98° |
| 2026-04-14 16:28 | 51.21266 | 0.75206 | 18816 ft | 429 kts | 97° |
| 2026-04-14 16:28 | 51.20889 | 0.79952 | 19288 ft | 434 kts | 97° |
| 2026-04-14 16:29 | 51.20507 | 0.84740 | 19852 ft | 438 kts | 97° |
| 2026-04-14 16:29 | 51.20124 | 0.89524 | 20305 ft | 442 kts | 97° |
| 2026-04-14 16:29 | 51.19726 | 0.94463 | 20764 ft | 446 kts | 96° |
| 2026-04-14 16:29 | 51.19355 | 0.99035 | 21162 ft | 450 kts | 96° |
| 2026-04-14 16:30 | 51.18950 | 1.04009 | 21592 ft | 454 kts | 96° |
| 2026-04-14 16:30 | 51.18540 | 1.09016 | 22026 ft | 458 kts | 96° |
| 2026-04-14 16:30 | 51.18124 | 1.14065 | 22452 ft | 462 kts | 96° |
| 2026-04-14 16:30 | 51.17702 | 1.19162 | 22868 ft | 465 kts | 96° |
| 2026-04-14 16:31 | 51.17277 | 1.24276 | 23279 ft | 469 kts | 96° |
| 2026-04-14 16:31 | 51.16843 | 1.29461 | 23696 ft | 472 kts | 96° |
| 2026-04-14 16:31 | 51.16407 | 1.34653 | 24045 ft | 475 kts | 96° |
| 2026-04-14 16:31 | 51.16035 | 1.39876 | 24416 ft | 476 kts | 93° |
| 2026-04-14 16:32 | 51.15764 | 1.45137 | 24788 ft | 477 kts | 92° |
| 2026-04-14 16:32 | 51.15534 | 1.50413 | 25152 ft | 478 kts | 92° |
| 2026-04-14 16:32 | 51.15310 | 1.55705 | 25489 ft | 480 kts | 92° |
| 2026-04-14 16:32 | 51.15074 | 1.61028 | 25812 ft | 482 kts | 92° |
| 2026-04-14 16:33 | 51.14823 | 1.66363 | 26136 ft | 484 kts | 93° |
| 2026-04-14 16:33 | 51.14558 | 1.71729 | 26465 ft | 486 kts | 93° |
| 2026-04-14 16:33 | 51.14287 | 1.77105 | 26779 ft | 488 kts | 93° |
| 2026-04-14 16:33 | 51.14010 | 1.82491 | 27081 ft | 489 kts | 94° |
| 2026-04-14 16:34 | 51.13731 | 1.87897 | 27374 ft | 491 kts | 94° |
| 2026-04-14 16:34 | 51.13450 | 1.93332 | 27677 ft | 493 kts | 94° |
| 2026-04-14 16:34 | 51.13165 | 1.98775 | 27964 ft | 494 kts | 94° |
| 2026-04-14 16:34 | 51.12878 | 2.04224 | 28314 ft | 494 kts | 94° |
| 2026-04-14 16:35 | 51.12589 | 2.09656 | 28756 ft | 492 kts | 94° |
| 2026-04-14 16:35 | 51.12298 | 2.15078 | 29229 ft | 490 kts | 94° |
| 2026-04-14 16:35 | 51.12007 | 2.20474 | 29647 ft | 489 kts | 95° |
| 2026-04-14 16:35 | 51.11714 | 2.25861 | 30003 ft | 488 kts | 95° |
| 2026-04-14 16:36 | 51.11420 | 2.31227 | 30337 ft | 488 kts | 95° |
| 2026-04-14 16:36 | 51.11122 | 2.36619 | 30673 ft | 487 kts | 95° |
| 2026-04-14 16:36 | 51.10823 | 2.41985 | 31000 ft | 486 kts | 95° |
| 2026-04-14 16:36 | 51.10521 | 2.47341 | 31309 ft | 486 kts | 95° |
| 2026-04-14 16:37 | 51.10219 | 2.52698 | 31590 ft | 486 kts | 95° |
| 2026-04-14 16:37 | 51.09914 | 2.58042 | 31899 ft | 486 kts | 95° |
| 2026-04-14 16:37 | 51.09599 | 2.63378 | 32224 ft | 484 kts | 97° |
| 2026-04-14 16:37 | 51.09003 | 2.68639 | 32502 ft | 484 kts | 105° |
| 2026-04-14 16:38 | 51.08109 | 2.73724 | 32800 ft | 483 kts | 107° |
| 2026-04-14 16:38 | 51.07148 | 2.78833 | 33097 ft | 483 kts | 107° |
| 2026-04-14 16:38 | 51.06172 | 2.83946 | 33180 ft | 485 kts | 107° |
| 2026-04-14 16:39 | 51.04237 | 2.94228 | 33176 ft | 485 kts | 107° |
| 2026-04-14 16:39 | 51.02357 | 3.04427 | 33172 ft | 477 kts | 107° |
| 2026-04-14 16:40 | 51.00502 | 3.14514 | 33182 ft | 475 kts | 107° |
| 2026-04-14 16:40 | 50.98644 | 3.24564 | 33183 ft | 473 kts | 108° |
| 2026-04-14 16:41 | 50.96782 | 3.34565 | 33177 ft | 472 kts | 108° |
| 2026-04-14 16:41 | 50.94917 | 3.44521 | 33181 ft | 471 kts | 108° |
| 2026-04-14 16:42 | 50.93046 | 3.54466 | 33179 ft | 470 kts | 108° |
| 2026-04-14 16:42 | 50.91170 | 3.64388 | 33189 ft | 469 kts | 109° |
| 2026-04-14 16:43 | 50.89269 | 3.74267 | 33187 ft | 468 kts | 109° |
| 2026-04-14 16:43 | 50.87354 | 3.84119 | 33198 ft | 468 kts | 109° |
| 2026-04-14 16:44 | 50.85434 | 3.93957 | 33190 ft | 467 kts | 109° |
| 2026-04-14 16:44 | 50.83515 | 4.03763 | 33204 ft | 466 kts | 110° |
| 2026-04-14 16:45 | 50.80640 | 4.18357 | 33216 ft | 464 kts | 110° |
| 2026-04-14 16:45 | 50.78698 | 4.28158 | 33203 ft | 463 kts | 110° |
| 2026-04-14 16:46 | 50.76765 | 4.37861 | 33222 ft | 462 kts | 110° |
| 2026-04-14 16:46 | 50.74844 | 4.47455 | 33203 ft | 461 kts | 110° |
| 2026-04-14 16:47 | 50.72907 | 4.57095 | 33217 ft | 460 kts | 111° |
| 2026-04-14 16:47 | 50.70992 | 4.66739 | 33206 ft | 460 kts | 110° |
| 2026-04-14 16:48 | 50.69135 | 4.76361 | 33216 ft | 459 kts | 110° |
| 2026-04-14 16:48 | 50.67262 | 4.85990 | 33198 ft | 459 kts | 110° |
| 2026-04-14 16:49 | 50.65364 | 4.95587 | 33215 ft | 458 kts | 111° |
| 2026-04-14 16:49 | 50.63412 | 5.05112 | 33203 ft | 458 kts | 111° |
| 2026-04-14 16:50 | 50.61440 | 5.14661 | 33213 ft | 458 kts | 111° |
| 2026-04-14 16:50 | 50.59472 | 5.24189 | 33212 ft | 458 kts | 111° |
| 2026-04-14 16:51 | 50.57501 | 5.33701 | 33223 ft | 458 kts | 111° |
| 2026-04-14 16:51 | 50.55518 | 5.43225 | 33206 ft | 458 kts | 112° |
| 2026-04-14 16:52 | 50.53545 | 5.52665 | 33214 ft | 457 kts | 112° |
| 2026-04-14 16:52 | 50.51550 | 5.62162 | 33205 ft | 457 kts | 112° |
| 2026-04-14 16:53 | 50.49705 | 5.71644 | 33210 ft | 457 kts | 110° |
| 2026-04-14 16:53 | 50.47943 | 5.81298 | 33193 ft | 456 kts | 110° |
| 2026-04-14 16:54 | 50.46187 | 5.90781 | 33198 ft | 454 kts | 110° |
| 2026-04-14 16:54 | 50.44397 | 6.00280 | 33189 ft | 453 kts | 110° |
| 2026-04-14 16:55 | 50.43501 | 6.05004 | 33056 ft | 450 kts | 110° |
| 2026-04-14 16:55 | 50.42609 | 6.09699 | 32489 ft | 447 kts | 110° |
| 2026-04-14 16:55 | 50.41722 | 6.14353 | 31799 ft | 446 kts | 110° |
| 2026-04-14 16:55 | 50.40831 | 6.19010 | 31085 ft | 447 kts | 110° |
| 2026-04-14 16:56 | 50.39936 | 6.23684 | 30341 ft | 448 kts | 110° |
| 2026-04-14 16:56 | 50.39034 | 6.28382 | 29459 ft | 450 kts | 110° |
| 2026-04-14 16:56 | 50.38131 | 6.33079 | 28595 ft | 451 kts | 110° |
| 2026-04-14 16:56 | 50.37214 | 6.37792 | 27712 ft | 452 kts | 111° |
| 2026-04-14 16:57 | 50.36359 | 6.42538 | 26847 ft | 456 kts | 105° |
| 2026-04-14 16:57 | 50.35925 | 6.47442 | 26256 ft | 454 kts | 99° |
| 2026-04-14 16:57 | 50.35644 | 6.52346 | 25615 ft | 451 kts | 98° |
| 2026-04-14 16:57 | 50.35376 | 6.57211 | 24997 ft | 447 kts | 98° |
| 2026-04-14 16:58 | 50.35096 | 6.62056 | 24376 ft | 444 kts | 99° |
| 2026-04-14 16:58 | 50.34800 | 6.66856 | 23753 ft | 442 kts | 99° |
| 2026-04-14 16:58 | 50.34495 | 6.71631 | 23024 ft | 439 kts | 99° |
| 2026-04-14 16:58 | 50.34190 | 6.76379 | 22372 ft | 435 kts | 99° |
| 2026-04-14 16:59 | 50.33866 | 6.81058 | 21744 ft | 429 kts | 103° |
| 2026-04-14 16:59 | 50.33135 | 6.85524 | 21175 ft | 420 kts | 113° |
| 2026-04-14 16:59 | 50.31989 | 6.89662 | 20710 ft | 409 kts | 121° |
| 2026-04-14 16:59 | 50.30473 | 6.93396 | 20267 ft | 408 kts | 129° |
| 2026-04-14 17:00 | 50.28807 | 6.97045 | 19830 ft | 415 kts | 129° |
| 2026-04-14 17:00 | 50.27130 | 7.00728 | 19370 ft | 416 kts | 128° |
| 2026-04-14 17:00 | 50.25470 | 7.04394 | 18910 ft | 411 kts | 128° |
| 2026-04-14 17:00 | 50.23828 | 7.08033 | 18448 ft | 407 kts | 128° |
| 2026-04-14 17:01 | 50.22207 | 7.11635 | 17941 ft | 403 kts | 128° |
| 2026-04-14 17:01 | 50.20599 | 7.15209 | 17473 ft | 400 kts | 128° |
| 2026-04-14 17:01 | 50.19008 | 7.18743 | 17030 ft | 397 kts | 128° |
| 2026-04-14 17:01 | 50.17425 | 7.22253 | 16586 ft | 395 kts | 128° |
| 2026-04-14 17:02 | 50.15842 | 7.25758 | 16147 ft | 394 kts | 128° |
| 2026-04-14 17:02 | 50.14268 | 7.29240 | 15728 ft | 393 kts | 128° |
| 2026-04-14 17:02 | 50.12693 | 7.32718 | 15290 ft | 393 kts | 128° |
| 2026-04-14 17:02 | 50.11120 | 7.36186 | 14883 ft | 392 kts | 128° |
| 2026-04-14 17:03 | 50.09566 | 7.39609 | 14464 ft | 392 kts | 127° |
| 2026-04-14 17:03 | 50.07969 | 7.43121 | 14035 ft | 392 kts | 127° |
| 2026-04-14 17:03 | 50.06418 | 7.46531 | 13557 ft | 391 kts | 127° |
| 2026-04-14 17:03 | 50.04858 | 7.49955 | 13100 ft | 384 kts | 127° |
| 2026-04-14 17:04 | 50.03327 | 7.53314 | 12661 ft | 376 kts | 127° |
| 2026-04-14 17:04 | 50.01832 | 7.56588 | 12246 ft | 368 kts | 127° |
| 2026-04-14 17:04 | 50.00365 | 7.59795 | 11845 ft | 360 kts | 128° |
| 2026-04-14 17:04 | 49.98930 | 7.62933 | 11450 ft | 354 kts | 128° |
| 2026-04-14 17:05 | 49.97514 | 7.66021 | 11043 ft | 348 kts | 128° |
| 2026-04-14 17:05 | 49.96128 | 7.69043 | 10792 ft | 334 kts | 128° |
| 2026-04-14 17:05 | 49.94819 | 7.71896 | 10660 ft | 314 kts | 128° |
| 2026-04-14 17:05 | 49.93593 | 7.74566 | 10526 ft | 295 kts | 128° |
| 2026-04-14 17:06 | 49.92431 | 7.77090 | 10356 ft | 280 kts | 128° |
| 2026-04-14 17:06 | 49.91312 | 7.79515 | 9953 ft | 276 kts | 128° |
| 2026-04-14 17:06 | 49.90192 | 7.81935 | 9381 ft | 276 kts | 128° |
| 2026-04-14 17:06 | 49.89150 | 7.84432 | 8843 ft | 278 kts | 115° |
| 2026-04-14 17:07 | 49.88793 | 7.87375 | 8345 ft | 281 kts | 89° |
| 2026-04-14 17:07 | 49.89216 | 7.90303 | 8064 ft | 275 kts | 71° |
| 2026-04-14 17:07 | 49.89900 | 7.93031 | 7722 ft | 270 kts | 70° |
| 2026-04-14 17:07 | 49.90601 | 7.95720 | 7308 ft | 268 kts | 68° |
| 2026-04-14 17:08 | 49.91328 | 7.98374 | 6911 ft | 266 kts | 69° |
| 2026-04-14 17:08 | 49.92010 | 8.01023 | 6512 ft | 264 kts | 70° |
| 2026-04-14 17:08 | 49.92696 | 8.03661 | 6231 ft | 264 kts | 68° |
| 2026-04-14 17:08 | 49.93403 | 8.06281 | 5972 ft | 262 kts | 69° |
| 2026-04-14 17:09 | 49.94048 | 8.08871 | 5813 ft | 250 kts | 70° |
| 2026-04-14 17:09 | 49.94439 | 8.10510 | 5711 ft | 240 kts | 70° |
| 2026-04-14 17:09 | 49.94995 | 8.12879 | 5433 ft | 230 kts | 70° |
| 2026-04-14 17:09 | 49.95540 | 8.15204 | 5022 ft | 227 kts | 70° |
| 2026-04-14 17:10 | 49.96074 | 8.17477 | 5008 ft | 224 kts | 70° |
| 2026-04-14 17:10 | 49.96614 | 8.19775 | 4892 ft | 230 kts | 69° |
| 2026-04-14 17:10 | 49.97169 | 8.22131 | 4581 ft | 235 kts | 69° |
| 2026-04-14 17:10 | 49.97722 | 8.24477 | 4234 ft | 226 kts | 69° |
| 2026-04-14 17:11 | 49.98246 | 8.26698 | 3907 ft | 213 kts | 69° |
| 2026-04-14 17:11 | 49.98742 | 8.28796 | 3595 ft | 199 kts | 69° |
| 2026-04-14 17:11 | 49.99202 | 8.30741 | 3311 ft | 186 kts | 68° |
| 2026-04-14 17:11 | 49.99636 | 8.32575 | 3061 ft | 177 kts | 68° |
| 2026-04-14 17:12 | 50.00057 | 8.34355 | 2811 ft | 175 kts | 68° |
| 2026-04-14 17:12 | 50.00478 | 8.36128 | 2558 ft | 174 kts | 68° |
| 2026-04-14 17:12 | 50.00896 | 8.37892 | 2303 ft | 174 kts | 68° |
| 2026-04-14 17:12 | 50.01307 | 8.39625 | 2060 ft | 166 kts | 68° |
| 2026-04-14 17:13 | 50.01700 | 8.41282 | 1786 ft | 161 kts | 68° |
| 2026-04-14 17:13 | 50.02086 | 8.42903 | 1470 ft | 161 kts | 69° |
| 2026-04-14 17:13 | 50.02473 | 8.44530 | 1194 ft | 156 kts | 69° |
| 2026-04-14 17:13 | 50.02837 | 8.46063 | 876 ft | 145 kts | 69° |
| 2026-04-14 17:14 | 50.03176 | 8.47486 | 661 ft | 136 kts | 69° |
| 2026-04-14 17:14 | 50.03489 | 8.48801 | 476 ft | 129 kts | 69° |
| 2026-04-14 17:14 | 50.03803 | 8.50105 | 328 ft | 127 kts | 69° |
| 2026-04-14 17:14 | 50.04058 | 8.51179 | 328 ft | 76 kts | 69° |
| 2026-04-14 17:15 | 50.04170 | 8.51657 | 330 ft | 28 kts | 72° |
| 2026-04-14 17:15 | 50.04231 | 8.51953 | 336 ft | 33 kts | 81° |
| 2026-04-14 17:15 | 50.04220 | 8.52308 | 338 ft | 29 kts | 99° |
| 2026-04-14 17:15 | 50.04193 | 8.52614 | 348 ft | 28 kts | 89° |
| 2026-04-14 17:16 | 50.04251 | 8.52889 | 356 ft | 26 kts | 70° |
| 2026-04-14 17:16 | 50.04311 | 8.53143 | 358 ft | 24 kts | 68° |
| 2026-04-14 17:16 | 50.04368 | 8.53377 | 369 ft | 23 kts | 70° |
| 2026-04-14 17:16 | 50.04401 | 8.53613 | 374 ft | 22 kts | 84° |
| 2026-04-14 17:17 | 50.04417 | 8.53849 | 374 ft | 22 kts | 84° |
| 2026-04-14 17:17 | 50.04432 | 8.54081 | 374 ft | 21 kts | 84° |
| 2026-04-14 17:17 | 50.04449 | 8.54335 | 373 ft | 24 kts | 83° |
| 2026-04-14 17:17 | 50.04428 | 8.54591 | 366 ft | 25 kts | 115° |
| 2026-04-14 17:18 | 50.04300 | 8.54777 | 356 ft | 26 kts | 156° |
| 2026-04-14 17:18 | 50.04140 | 8.54868 | 352 ft | 21 kts | 160° |
| 2026-04-14 17:18 | 50.04037 | 8.54932 | 355 ft | 11 kts | 146° |
| 2026-04-14 17:18 | 50.04027 | 8.55053 | 355 ft | 14 kts | 69° |
| 2026-04-14 17:19 | 50.04060 | 8.55192 | 354 ft | 14 kts | 70° |
| 2026-04-14 17:19 | 50.04103 | 8.55375 | 358 ft | 22 kts | 69° |
| 2026-04-14 17:19 | 50.04164 | 8.55628 | 353 ft | 26 kts | 70° |
| 2026-04-14 17:19 | 50.04201 | 8.55781 | 359 ft | 12 kts | 69° |
| 2026-04-14 17:20 | 50.04235 | 8.55923 | 356 ft | 19 kts | 70° |
| 2026-04-14 17:20 | 50.04281 | 8.56116 | 354 ft | 19 kts | 69° |
| 2026-04-14 17:20 | 50.04328 | 8.56311 | 361 ft | 19 kts | 69° |
| 2026-04-14 17:20 | 50.04373 | 8.56504 | 361 ft | 19 kts | 70° |
| 2026-04-14 17:21 | 50.04417 | 8.56688 | 358 ft | 18 kts | 70° |
| 2026-04-14 17:21 | 50.04461 | 8.56870 | 361 ft | 17 kts | 70° |
| 2026-04-14 17:21 | 50.04514 | 8.57090 | 361 ft | 26 kts | 70° |
| 2026-04-14 17:21 | 50.04574 | 8.57342 | 358 ft | 24 kts | 69° |
| 2026-04-14 17:22 | 50.04630 | 8.57576 | 363 ft | 23 kts | 70° |
| 2026-04-14 17:22 | 50.04682 | 8.57799 | 359 ft | 17 kts | 69° |
| 2026-04-14 17:22 | 50.04746 | 8.57945 | 358 ft | 16 kts | 41° |
| 2026-04-14 17:22 | 50.04810 | 8.58082 | 360 ft | 16 kts | 69° |
| 2026-04-14 17:23 | 50.04848 | 8.58245 | 364 ft | 18 kts | 69° |
| 2026-04-14 17:23 | 50.04892 | 8.58429 | 360 ft | 18 kts | 69° |
| 2026-04-14 17:23 | 50.04934 | 8.58606 | 364 ft | 17 kts | 70° |
| 2026-04-14 17:23 | 50.04976 | 8.58780 | 365 ft | 17 kts | 69° |
| 2026-04-14 17:24 | 50.05016 | 8.58946 | 359 ft | 16 kts | 70° |
| 2026-04-14 17:24 | 50.05040 | 8.59048 | 363 ft | 8 kts | 69° |
| 2026-04-14 17:24 | 50.05049 | 8.59092 | 362 ft | 4 kts | 90° |
| 2026-04-14 17:24 | 50.05031 | 8.59121 | 367 ft | 4 kts | 155° |
| 2026-04-14 17:25 | 50.05007 | 8.59135 | 360 ft | 4 kts | 160° |
| 2026-04-14 17:25 | 50.04994 | 8.59142 | 362 ft | 1 kts | 160° |
| 2026-04-14 17:25 | 50.04988 | 8.59146 | 365 ft | 1 kts | 160° |
| 2026-04-14 17:25 | 50.04983 | 8.59149 | 364 ft | 0 kts | 160° |
| 2026-04-14 17:26 | 50.04982 | 8.59150 | 364 ft | 0 kts | 160° |